createdAt,value
2022-09-15T00:07:04.046Z,15.78
2022-09-15T00:17:06.980Z,15.79
2022-09-15T00:27:10.035Z,15.76
2022-09-15T00:37:12.936Z,15.71
2022-09-15T00:47:19.745Z,15.73
2022-09-15T00:57:45.500Z,15.72
2022-09-15T01:07:51.370Z,15.65
2022-09-15T01:18:00.709Z,15.64
2022-09-15T01:28:43.437Z,15.67
2022-09-15T01:38:46.939Z,15.60
2022-09-15T01:48:52.735Z,15.66
2022-09-15T01:58:55.656Z,15.50
2022-09-15T02:09:02.810Z,15.58
2022-09-15T02:19:33.248Z,15.54
2022-09-15T02:29:37.629Z,15.47
2022-09-15T02:39:46.405Z,15.43
2022-09-15T02:49:53.042Z,15.46
2022-09-15T03:00:14.667Z,15.60
2022-09-15T03:10:17.580Z,15.51
2022-09-15T03:20:23.755Z,15.46
2022-09-15T03:31:10.344Z,15.48
2022-09-15T03:41:13.961Z,15.37
2022-09-15T03:51:16.935Z,15.22
2022-09-15T04:01:21.059Z,15.00
2022-09-15T04:11:24.900Z,15.07
2022-09-15T04:21:27.730Z,15.15
2022-09-15T04:31:30.862Z,15.16
2022-09-15T04:41:34.472Z,15.24
2022-09-15T04:51:38.330Z,15.48
2022-09-15T05:01:41.129Z,15.74
2022-09-15T05:11:43.947Z,16.08
2022-09-15T05:21:47.200Z,16.18
2022-09-15T05:31:49.786Z,16.18
2022-09-15T05:41:52.962Z,16.19
2022-09-15T05:51:56.387Z,16.33
2022-09-15T06:01:59.475Z,16.63
2022-09-15T06:12:02.891Z,16.84
2022-09-15T06:22:05.922Z,17.46
2022-09-15T06:32:09.125Z,18.62
2022-09-15T06:42:13.822Z,18.65
2022-09-15T06:52:17.913Z,18.91
2022-09-15T07:02:20.961Z,19.37
2022-09-15T07:12:24.907Z,19.58
2022-09-15T07:22:27.847Z,19.80
2022-09-15T07:32:30.851Z,20.02
2022-09-15T07:42:35.578Z,20.21
2022-09-15T07:52:38.351Z,20.55
2022-09-15T08:02:41.149Z,21.72
2022-09-15T08:12:43.981Z,22.83
2022-09-15T08:22:48.296Z,22.84
2022-09-15T08:32:51.418Z,24.02
2022-09-15T08:42:58.011Z,24.09
2022-09-15T08:53:27.513Z,23.40
2022-09-15T09:03:39.909Z,23.71
2022-09-15T09:14:01.022Z,23.74
2022-09-15T09:24:16.736Z,23.71
2022-09-15T09:34:35.544Z,23.86
2022-09-15T09:44:40.450Z,24.40
2022-09-15T09:54:43.124Z,25.37
2022-09-15T10:05:12.402Z,25.05
2022-09-15T10:15:23.410Z,26.95
2022-09-15T10:25:39.513Z,27.94
2022-09-15T10:35:50.644Z,27.96
2022-09-15T10:46:07.701Z,26.93
2022-09-15T10:56:33.959Z,27.93
2022-09-15T11:06:51.473Z,28.51
2022-09-15T11:17:23.719Z,28.93
2022-09-15T11:27:47.199Z,28.40
2022-09-15T11:37:52.955Z,28.81
2022-09-15T11:48:32.106Z,28.60
2022-09-15T11:59:01.511Z,29.11
2022-09-15T12:09:06.939Z,29.18
2022-09-15T12:19:33.710Z,28.88
2022-09-15T12:29:42.660Z,28.91
2022-09-15T12:39:47.326Z,28.62
2022-09-15T12:49:52.360Z,27.99
2022-09-15T13:00:32.597Z,27.88
2022-09-15T13:10:39.736Z,27.99
2022-09-15T13:20:53.029Z,27.99
2022-09-15T13:31:05.018Z,27.78
2022-09-15T13:41:26.271Z,27.54
2022-09-15T13:51:31.467Z,27.47
2022-09-15T14:01:36.019Z,27.48
2022-09-15T14:11:39.443Z,26.96
2022-09-15T14:21:53.791Z,26.56
2022-09-15T14:32:04.068Z,26.12
2022-09-15T14:42:21.434Z,25.56
2022-09-15T14:52:28.813Z,25.38
2022-09-15T15:02:49.237Z,24.93
2022-09-15T15:12:56.208Z,24.26
2022-09-15T15:23:17.145Z,23.71
2022-09-15T15:33:28.309Z,23.34
2022-09-15T15:43:30.885Z,22.88
2022-09-15T15:53:34.568Z,22.44
2022-09-15T16:03:38.338Z,21.31
2022-09-15T16:13:41.980Z,20.61
2022-09-15T16:23:44.913Z,20.43
2022-09-15T16:33:47.882Z,20.18
2022-09-15T16:43:50.974Z,20.13
2022-09-15T16:53:53.891Z,19.92
2022-09-15T17:03:56.743Z,19.78
2022-09-15T17:13:59.905Z,19.70
2022-09-15T17:24:03.070Z,19.62
2022-09-15T17:34:10.771Z,19.60
2022-09-15T17:44:14.777Z,19.48
2022-09-15T17:54:19.399Z,19.42
2022-09-15T18:04:24.185Z,19.15
2022-09-15T18:14:28.128Z,19.01
2022-09-15T18:24:31.198Z,18.75
2022-09-15T18:34:34.172Z,18.68
2022-09-15T18:44:37.153Z,18.57
2022-09-15T18:54:40.507Z,18.45
2022-09-15T19:04:43.983Z,18.38
2022-09-15T19:14:47.191Z,18.29
2022-09-15T19:24:50.248Z,18.20
2022-09-15T19:34:53.173Z,18.07
2022-09-15T19:44:55.894Z,18.01
2022-09-15T19:54:59.038Z,17.90
2022-09-15T20:05:07.740Z,17.88
2022-09-15T20:15:10.515Z,17.78
2022-09-15T20:25:12.999Z,17.83
2022-09-15T20:35:15.943Z,17.78
2022-09-15T20:45:18.835Z,17.80
2022-09-15T20:55:21.859Z,17.81
2022-09-15T21:05:24.314Z,17.77
2022-09-15T21:15:28.324Z,17.75
2022-09-15T21:25:31.016Z,17.63
2022-09-15T21:35:34.489Z,17.68
2022-09-15T21:45:37.762Z,17.73
2022-09-15T21:55:40.129Z,17.76
2022-09-15T22:05:44.170Z,17.82
2022-09-15T22:16:02.847Z,17.78
2022-09-15T22:26:13.832Z,17.75
2022-09-15T22:36:18.973Z,17.74
2022-09-15T22:46:21.697Z,17.76
2022-09-15T22:56:26.989Z,17.73
2022-09-15T23:06:38.001Z,17.69
2022-09-15T23:17:07.941Z,17.67
2022-09-15T23:27:10.896Z,17.52
2022-09-15T23:37:13.925Z,17.46
2022-09-15T23:47:16.963Z,17.37
2022-09-15T23:57:19.919Z,17.29
